Time;durP1;ratioP1;P1;durP2;ratioP2;P2;SDS_P1;SDS_P2;PMS_P1;PMS_P2;Temp;Humidity;BMP_temperature;BMP_pressure;BME280_temperature;BME280_humidity;BME280_pressure;Samples;Min_cycle;Max_cycle;Signal;HPM_P1;HPM_P2
2022/01/18 11:44:37;;;;;;;32.00;13.43;;;6.10;99.90;;;;;;5149321;27;1310274;-63
2022/01/18 11:47:04;;;;;;;33.28;21.40;;;6.20;99.90;;;;;;5173368;27;20054;-64
2022/01/18 11:49:32;;;;;;;25.35;10.45;;;6.20;99.90;;;;;;5153671;27;20700;-65
2022/01/18 11:52:03;;;;;;;26.00;8.57;;;6.20;99.90;;;;;;5172271;27;20053;-62
2022/01/18 11:54:42;;;;;;;19.33;8.82;;;6.20;99.90;;;;;;5171551;27;20054;-62
2022/01/18 11:57:23;;;;;;;18.95;9.70;;;6.10;99.90;;;;;;5173507;27;20110;-62
2022/01/18 11:59:52;;;;;;;15.60;8.65;;;6.10;99.90;;;;;;5154115;27;20050;-63
2022/01/18 12:02:47;;;;;;;20.17;7.63;;;6.00;99.90;;;;;;5173033;27;20050;-63
2022/01/18 12:05:19;;;;;;;20.95;8.32;;;5.90;99.90;;;;;;5169100;27;20157;-64
2022/01/18 12:07:47;;;;;;;21.88;8.23;;;5.90;99.90;;;;;;5153633;27;20450;-63
2022/01/18 12:10:28;;;;;;;23.98;8.63;;;5.90;99.90;;;;;;5172617;27;20086;-63
2022/01/18 12:12:56;;;;;;;20.77;8.38;;;5.90;99.90;;;;;;5172829;27;20057;-63
2022/01/18 12:15:26;;;;;;;24.52;10.85;;;5.90;99.90;;;;;;5172658;27;20482;-63
2022/01/18 12:18:01;;;;;;;24.60;11.90;;;5.90;99.90;;;;;;5173189;27;20095;-64
2022/01/18 12:20:46;;;;;;;22.42;8.50;;;5.90;99.90;;;;;;5155113;27;20466;-63
2022/01/18 12:23:20;;;;;;;31.65;8.75;;;5.90;99.90;;;;;;5173084;27;20383;-64
2022/01/18 12:29:19;;;;;;;21.33;11.52;;;6.00;99.90;;;;;;5172911;27;20050;-63
2022/01/18 12:34:46;;;;;;;20.08;7.22;;;5.90;99.90;;;;;;5172944;27;20038;-64
2022/01/18 12:37:13;;;;;;;22.77;9.32;;;5.90;99.90;;;;;;5154315;27;20134;-63
2022/01/18 12:40:03;;;;;;;21.50;8.60;;;5.90;99.90;;;;;;5153848;27;20063;-64
2022/01/18 12:45:20;;;;;;;24.48;9.35;;;6.00;99.90;;;;;;5153909;27;20475;-63
2022/01/18 12:47:52;;;;;;;28.20;10.55;;;6.00;99.90;;;;;;5154007;27;20057;-62
2022/01/18 12:50:43;;;;;;;17.17;7.07;;;6.00;99.90;;;;;;5154539;27;20042;-62
2022/01/18 12:53:14;;;;;;;18.58;7.22;;;6.00;99.90;;;;;;5172124;27;20050;-64
2022/01/18 12:55:46;;;;;;;16.98;6.25;;;6.00;99.90;;;;;;5159969;27;20062;-62
2022/01/18 12:58:14;;;;;;;22.70;7.43;;;5.90;99.90;;;;;;5158006;27;20059;-62
2022/01/18 13:00:45;;;;;;;20.40;6.95;;;6.00;99.90;;;;;;5140561;27;20061;-63
2022/01/18 13:03:20;;;;;;;21.08;7.28;;;5.90;99.90;;;;;;5158238;27;20355;-64
2022/01/18 13:05:48;;;;;;;20.65;7.07;;;5.90;99.90;;;;;;5157922;27;20051;-62
2022/01/18 13:08:20;;;;;;;16.42;6.78;;;5.90;99.90;;;;;;5157836;27;20049;-62
2022/01/18 13:10:51;;;;;;;19.85;7.50;;;5.80;99.90;;;;;;5157851;27;20043;-62
2022/01/18 13:13:21;;;;;;;21.38;8.10;;;5.80;99.90;;;;;;5140331;27;20050;-62
2022/01/18 13:24:11;;;;;;;20.52;7.90;;;5.90;99.90;;;;;;5157490;27;20126;-63
2022/01/18 13:26:43;;;;;;;17.75;8.23;;;5.80;99.90;;;;;;5140093;27;20046;-63
2022/01/18 13:29:16;;;;;;;22.65;8.20;;;5.80;99.90;;;;;;5157893;27;20275;-64
2022/01/18 13:31:44;;;;;;;19.55;7.95;;;5.80;99.90;;;;;;5157873;27;20058;-64
2022/01/18 13:34:13;;;;;;;23.05;9.43;;;5.70;99.90;;;;;;5157407;27;20054;-63
2022/01/18 13:36:55;;;;;;;24.60;9.55;;;5.80;99.90;;;;;;5156952;27;20550;-65
2022/01/18 13:39:21;;;;;;;28.85;13.38;;;5.70;99.90;;;;;;5157329;27;20152;-63
2022/01/18 13:41:47;;;;;;;29.42;12.27;;;5.70;99.90;;;;;;5138218;27;20055;-63
2022/01/18 13:44:13;;;;;;;40.70;20.58;;;5.70;99.90;;;;;;5156205;27;20094;-62
2022/01/18 13:46:39;;;;;;;38.25;19.10;;;5.70;99.90;;;;;;5157016;27;20439;-63
2022/01/18 13:49:06;;;;;;;28.63;12.75;;;5.60;99.90;;;;;;5157507;27;20521;-63
2022/01/18 13:51:33;;;;;;;28.25;12.02;;;5.60;99.90;;;;;;5138954;27;20038;-63
2022/01/18 13:54:03;;;;;;;29.45;12.15;;;5.60;99.90;;;;;;5156823;27;20602;-63
2022/01/18 13:56:28;;;;;;;27.73;11.90;;;5.70;99.90;;;;;;5157344;27;20058;-63
2022/01/18 13:59:08;;;;;;;29.77;12.95;;;5.70;99.90;;;;;;5156764;27;20042;-63
2022/01/18 14:01:35;;;;;;;27.95;12.52;;;5.60;99.90;;;;;;5146588;27;20038;-64
2022/01/18 14:04:18;;;;;;;34.20;14.45;;;5.60;99.90;;;;;;5154651;27;20490;-64
2022/01/18 14:06:44;;;;;;;39.00;14.68;;;5.60;99.90;;;;;;5155677;27;20482;-64
2022/01/18 14:09:13;;;;;;;33.63;15.15;;;5.60;99.90;;;;;;5156573;27;20050;-64
2022/01/18 14:11:47;;;;;;;32.50;15.27;;;5.50;99.90;;;;;;5156878;27;20050;-64
2022/01/18 14:14:19;;;;;;;35.83;15.68;;;5.50;99.90;;;;;;5156260;27;20470;-64
2022/01/18 14:16:59;;;;;;;37.45;15.70;;;5.50;99.90;;;;;;5156027;27;20058;-64
2022/01/18 14:19:24;;;;;;;37.10;15.18;;;5.50;99.90;;;;;;5155851;27;20722;-64
2022/01/18 14:21:50;;;;;;;39.05;15.73;;;5.50;99.90;;;;;;5156261;27;20050;-64
2022/01/18 14:24:22;;;;;;;36.20;15.15;;;5.50;99.90;;;;;;5155336;27;20035;-64
2022/01/18 14:26:53;;;;;;;45.85;20.80;;;5.50;99.90;;;;;;5154782;27;20494;-64
2022/01/18 14:29:23;;;;;;;61.13;31.40;;;5.50;99.90;;;;;;5149253;27;20043;-66
2022/01/18 14:32:05;;;;;;;48.90;24.65;;;5.40;99.90;;;;;;5127275;27;20084;-65
2022/01/18 14:34:33;;;;;;;112.85;53.15;;;5.40;99.90;;;;;;5135455;27;20108;-65
2022/01/18 14:37:00;;;;;;;49.22;27.13;;;5.30;99.90;;;;;;5135310;27;20043;-63
2022/01/18 14:39:25;;;;;;;43.15;19.25;;;5.30;99.90;;;;;;5135464;27;20103;-64
2022/01/18 14:42:05;;;;;;;44.08;20.35;;;5.30;99.90;;;;;;5135798;27;20383;-64
2022/01/18 14:44:47;;;;;;;41.00;18.42;;;5.30;99.90;;;;;;5135420;27;20144;-63
2022/01/18 14:47:26;;;;;;;46.50;19.98;;;5.30;99.90;;;;;;5116812;27;20095;-64
2022/01/18 14:49:56;;;;;;;38.30;16.67;;;5.20;99.90;;;;;;5135117;27;20043;-64
2022/01/18 14:52:23;;;;;;;38.15;16.23;;;5.20;99.90;;;;;;5135312;27;20387;-63
2022/01/18 14:54:50;;;;;;;44.20;17.52;;;5.20;99.90;;;;;;5140729;27;20046;-64
2022/01/18 14:57:15;;;;;;;;;;;5.10;99.90;;;;;;5144735;27;20367;-63
2022/01/18 14:59:41;;;;;;;36.10;15.52;;;5.10;99.90;;;;;;5144673;27;19975;-63
2022/01/18 15:02:08;;;;;;;36.15;15.65;;;5.10;99.90;;;;;;5145791;27;20031;-63
2022/01/18 15:04:33;;;;;;;55.72;25.92;;;5.00;99.90;;;;;;5146914;27;20047;-63
2022/01/18 15:06:59;;;;;;;40.53;17.02;;;4.90;99.90;;;;;;5155109;27;20433;-63
2022/01/18 15:09:28;;;;;;;36.58;15.60;;;4.90;99.90;;;;;;5156261;27;20466;-64
2022/01/18 15:11:55;;;;;;;41.88;15.07;;;4.80;99.90;;;;;;5155788;27;20046;-63
2022/01/18 15:14:21;;;;;;;33.13;14.63;;;4.80;99.90;;;;;;5155436;27;20042;-63
2022/01/18 15:16:47;;;;;;;35.90;15.20;;;4.70;99.90;;;;;;5155499;27;20065;-63
2022/01/18 15:19:13;;;;;;;34.25;16.92;;;4.70;99.90;;;;;;5137615;27;20095;-63
2022/01/18 15:21:38;;;;;;;42.72;14.00;;;4.60;99.90;;;;;;5155838;27;20382;-63
2022/01/18 15:24:05;;;;;;;38.38;14.20;;;4.60;99.90;;;;;;5155758;27;20412;-64
2022/01/18 15:26:30;;;;;;;44.45;16.42;;;4.60;99.90;;;;;;5156031;27;20055;-64
2022/01/18 15:28:56;;;;;;;41.55;14.82;;;4.60;99.90;;;;;;5155431;27;20087;-64
2022/01/18 15:31:21;;;;;;;38.22;15.35;;;4.60;99.90;;;;;;5155173;27;20489;-63
2022/01/18 15:33:47;;;;;;;37.88;14.88;;;4.60;99.90;;;;;;5155305;27;20078;-64
2022/01/18 15:36:13;;;;;;;34.17;14.10;;;4.60;99.90;;;;;;5155699;27;20046;-63
2022/01/18 15:38:39;;;;;;;30.08;12.95;;;4.60;99.90;;;;;;5154939;27;20482;-65
2022/01/18 15:41:05;;;;;;;35.25;12.20;;;4.60;99.90;;;;;;5155570;27;20042;-65
2022/01/18 15:43:31;;;;;;;32.92;12.77;;;4.50;99.90;;;;;;5145620;27;20077;-65
2022/01/18 15:45:56;;;;;;;27.73;12.02;;;4.40;99.90;;;;;;5143112;27;20491;-64
2022/01/18 15:48:22;;;;;;;25.30;12.00;;;4.40;99.90;;;;;;5144325;27;20038;-64
2022/01/18 15:50:48;;;;;;;28.52;10.75;;;4.30;99.90;;;;;;5144814;27;20078;-64
2022/01/18 15:53:14;;;;;;;31.50;11.15;;;4.10;99.90;;;;;;5143050;27;20035;-64
2022/01/18 15:55:43;;;;;;;26.70;10.68;;;4.10;99.90;;;;;;5142789;27;20066;-64
2022/01/18 15:58:09;;;;;;;37.53;11.38;;;4.10;99.90;;;;;;5149930;27;20043;-64
2022/01/18 16:00:37;;;;;;;39.20;11.23;;;4.00;99.90;;;;;;5139056;27;20043;-65
2022/01/18 16:03:03;;;;;;;36.30;12.40;;;4.00;99.90;;;;;;5143343;27;20113;-64
2022/01/18 16:05:29;;;;;;;;;;;3.90;99.90;;;;;;5147042;27;20496;-64
2022/01/18 16:07:56;;;;;;;26.30;12.13;;;3.80;99.90;;;;;;5142240;27;19919;-64
2022/01/18 16:10:23;;;;;;;27.00;12.52;;;3.90;99.90;;;;;;5136809;27;20103;-64
2022/01/18 16:12:49;;;;;;;25.17;12.38;;;3.80;99.90;;;;;;5142659;27;20123;-64
2022/01/18 16:15:15;;;;;;;24.45;11.82;;;3.90;99.90;;;;;;5134622;28;20087;-63
2022/01/18 16:17:41;;;;;;;35.10;16.55;;;3.90;99.90;;;;;;5134095;28;20047;-65
2022/01/18 16:20:07;;;;;;;37.60;15.30;;;3.80;99.90;;;;;;5134376;28;20043;-64
2022/01/18 16:22:33;;;;;;;28.75;12.88;;;3.80;99.90;;;;;;5115966;28;20082;-65
2022/01/18 16:24:59;;;;;;;37.42;13.50;;;3.80;99.90;;;;;;5136915;27;20509;-64
2022/01/18 16:27:24;;;;;;;35.25;13.48;;;3.70;99.90;;;;;;5110049;27;20044;-63
2022/01/18 16:29:52;;;;;;;38.45;15.50;;;3.70;99.90;;;;;;5145589;27;20367;-64
2022/01/18 16:32:18;;;;;;;32.13;14.10;;;3.70;99.90;;;;;;5148489;27;20486;-64
2022/01/18 16:34:44;;;;;;;36.13;15.20;;;3.70;99.90;;;;;;5144192;27;20124;-65
2022/01/18 16:37:09;;;;;;;30.73;15.63;;;4.00;99.90;;;;;;5140889;27;20047;-63
2022/01/18 16:39:35;;;;;;;28.92;15.43;;;3.80;99.90;;;;;;5137815;27;20070;-63
2022/01/18 16:42:01;;;;;;;30.38;15.25;;;3.80;99.90;;;;;;5138428;27;20424;-63
2022/01/18 16:44:27;;;;;;;35.13;16.52;;;3.90;99.90;;;;;;5137772;27;20051;-63
2022/01/18 16:46:53;;;;;;;36.03;17.30;;;4.30;99.90;;;;;;5138549;27;20377;-63
2022/01/18 16:49:18;;;;;;;35.80;17.67;;;3.90;99.90;;;;;;5137538;27;20055;-64
2022/01/18 16:51:44;;;;;;;36.45;17.10;;;3.90;99.90;;;;;;5137468;27;20046;-64
2022/01/18 16:54:11;;;;;;;39.30;23.42;;;3.90;99.90;;;;;;5137569;27;20117;-64
2022/01/18 16:56:38;;;;;;;35.97;16.77;;;3.90;99.90;;;;;;5128181;27;20051;-63
2022/01/18 16:59:04;;;;;;;36.40;17.08;;;3.80;99.90;;;;;;5147528;27;20394;-64
2022/01/18 17:01:31;;;;;;;;;;;3.80;99.90;;;;;;5113040;27;20062;-65
2022/01/18 17:03:59;;;;;;;40.22;16.50;;;3.70;99.90;;;;;;5146352;27;19920;-64
2022/01/18 17:06:26;;;;;;;41.10;17.92;;;3.70;99.90;;;;;;5147312;27;20390;-63
2022/01/18 17:08:52;;;;;;;48.15;19.05;;;3.80;99.90;;;;;;5130083;27;20047;-64
2022/01/18 17:11:18;;;;;;;45.60;19.23;;;3.80;99.90;;;;;;5148090;27;20042;-63
2022/01/18 17:13:45;;;;;;;45.80;19.80;;;3.80;99.90;;;;;;5146756;27;20039;-64
2022/01/18 17:16:11;;;;;;;51.13;20.48;;;3.80;99.90;;;;;;5142548;27;20043;-62
2022/01/18 17:18:38;;;;;;;53.35;21.23;;;3.80;99.90;;;;;;5105346;27;20133;-63
2022/01/18 17:21:05;;;;;;;58.58;21.42;;;3.80;99.90;;;;;;5147319;27;20050;-63
2022/01/18 17:23:31;;;;;;;62.97;22.15;;;3.90;99.90;;;;;;5147809;27;20042;-63
2022/01/18 17:25:56;;;;;;;54.53;21.20;;;3.80;99.90;;;;;;5146206;27;20074;-63
2022/01/18 17:28:22;;;;;;;60.97;25.95;;;3.90;99.90;;;;;;5120357;27;20082;-63
2022/01/18 17:30:48;;;;;;;71.03;33.55;;;3.90;99.90;;;;;;5145040;27;20127;-63
2022/01/18 17:33:15;;;;;;;;;;;4.00;99.90;;;;;;5141997;27;20091;-63
2022/01/18 17:35:41;;;;;;;65.90;24.33;;;3.90;99.90;;;;;;5147874;27;19962;-63
2022/01/18 17:38:08;;;;;;;69.25;22.88;;;3.90;99.90;;;;;;5142172;27;20043;-63
2022/01/18 17:40:35;;;;;;;69.57;24.67;;;3.90;99.90;;;;;;5136568;27;20105;-63
2022/01/18 17:43:01;;;;;;;71.82;23.65;;;3.90;99.90;;;;;;5136178;27;20554;-63
2022/01/18 17:45:27;;;;;;;64.47;24.23;;;3.90;99.90;;;;;;5141346;27;20131;-63
2022/01/18 17:47:54;;;;;;;69.93;24.30;;;3.90;99.90;;;;;;5127471;27;20049;-63
2022/01/18 17:50:20;;;;;;;79.07;24.00;;;4.00;99.90;;;;;;5147280;27;20047;-63
2022/01/18 17:52:46;;;;;;;;;;;4.00;99.90;;;;;;5146866;27;20493;-63
2022/01/18 17:55:13;;;;;;;101.82;40.97;;;4.10;99.90;;;;;;5145989;27;19919;-63
2022/01/18 17:57:40;;;;;;;78.75;28.25;;;4.00;99.90;;;;;;5138998;27;20050;-64
2022/01/18 18:00:07;;;;;;;73.93;26.45;;;4.00;99.90;;;;;;5136185;27;20043;-63
2022/01/18 18:02:34;;;;;;;93.28;32.08;;;4.00;99.90;;;;;;5118016;27;20049;-63
2022/01/18 18:05:00;;;;;;;83.70;28.95;;;4.00;99.90;;;;;;5135884;27;20506;-63
2022/01/18 18:07:25;;;;;;;79.38;25.05;;;4.10;99.90;;;;;;5136255;27;20047;-63
2022/01/18 18:09:51;;;;;;;90.82;34.30;;;4.00;99.90;;;;;;5117509;27;20047;-64
2022/01/18 18:12:17;;;;;;;57.55;22.75;;;4.00;99.90;;;;;;5136379;27;20043;-63
2022/01/18 18:14:43;;;;;;;57.95;21.52;;;4.00;99.90;;;;;;5141703;27;20035;-63
2022/01/18 18:17:08;;;;;;;66.32;21.67;;;4.00;99.90;;;;;;5125625;27;20070;-62
2022/01/18 18:19:34;;;;;;;54.72;21.08;;;4.00;99.90;;;;;;5135746;27;20049;-64
2022/01/18 18:22:00;;;;;;;59.00;21.67;;;4.10;99.90;;;;;;5135782;27;20058;-64
2022/01/18 18:24:26;;;;;;;60.90;23.10;;;4.00;99.90;;;;;;5135773;27;20046;-66
2022/01/18 18:26:52;;;;;;;61.80;23.70;;;4.00;99.90;;;;;;5135984;27;20087;-64
2022/01/18 18:29:18;;;;;;;74.47;24.45;;;4.10;99.90;;;;;;5135605;27;20050;-64
2022/01/18 18:31:44;;;;;;;70.20;24.67;;;4.10;99.90;;;;;;5135769;27;20047;-62
2022/01/18 18:34:10;;;;;;;67.43;23.55;;;4.20;99.90;;;;;;5135542;27;20496;-62
2022/01/18 18:36:36;;;;;;;59.72;22.90;;;4.10;99.90;;;;;;5135881;27;20062;-63
2022/01/18 18:39:13;;;;;;;57.70;22.73;;;4.10;99.90;;;;;;5135448;27;20039;-63
2022/01/18 18:42:03;;;;;;;64.88;24.30;;;4.20;99.90;;;;;;5135869;27;20133;-65
2022/01/18 18:44:28;;;;;;;68.60;24.35;;;4.10;99.90;;;;;;5134763;27;20051;-62
2022/01/18 18:46:54;;;;;;;64.80;23.75;;;4.20;99.90;;;;;;5118676;27;20400;-63
2022/01/18 18:49:20;;;;;;;55.22;21.90;;;4.20;99.90;;;;;;5140556;27;20038;-64
2022/01/18 18:51:46;;;;;;;57.30;24.48;;;4.20;99.90;;;;;;5146160;27;20428;-63
2022/01/18 18:54:13;;;;;;;66.75;23.30;;;4.10;99.90;;;;;;5126288;27;20074;-63
2022/01/18 18:56:39;;;;;;;64.70;24.88;;;4.20;99.90;;;;;;5131487;27;20107;-64
2022/01/18 18:59:18;;;;;;;67.82;23.45;;;4.10;99.90;;;;;;5135168;27;20043;-63
2022/01/18 19:04:24;;;;;;;70.60;23.45;;;4.10;99.90;;;;;;5116896;27;20110;-64
2022/01/18 19:06:49;;;;;;;59.83;23.45;;;4.20;99.90;;;;;;5135234;27;20503;-66
2022/01/18 19:09:16;;;;;;;62.28;22.85;;;4.20;99.90;;;;;;5135071;27;20047;-64
2022/01/18 19:11:43;;;;;;;63.83;22.67;;;4.30;99.90;;;;;;5134060;27;20123;-64
2022/01/18 19:14:10;;;;;;;63.72;23.27;;;4.20;99.90;;;;;;5135617;27;20047;-64
2022/01/18 19:16:36;;;;;;;70.20;28.17;;;4.20;99.90;;;;;;5135830;27;20043;-64
2022/01/18 19:19:07;;;;;;;68.53;24.58;;;4.10;99.90;;;;;;5135175;27;20054;-64
2022/01/18 19:21:33;;;;;;;69.45;27.15;;;4.10;99.90;;;;;;5135683;27;20043;-64
2022/01/18 19:24:00;;;;;;;76.05;26.83;;;4.20;99.90;;;;;;5134838;27;20072;-63
2022/01/18 19:26:26;;;;;;;61.88;24.48;;;4.10;99.90;;;;;;5134192;27;20399;-63
2022/01/18 19:28:52;;;;;;;77.55;27.98;;;4.20;99.90;;;;;;5114742;27;20568;-64
2022/01/18 19:31:18;;;;;;;84.13;27.50;;;4.10;99.90;;;;;;5115061;27;20053;-64
2022/01/18 19:33:44;;;;;;;82.47;26.65;;;4.20;99.90;;;;;;5134796;27;20035;-64
2022/01/18 19:36:10;;;;;;;75.50;26.92;;;4.20;99.90;;;;;;5116721;28;20046;-65
2022/01/18 19:38:36;;;;;;;81.10;27.75;;;4.20;99.90;;;;;;5134633;27;20421;-64
2022/01/18 19:41:02;;;;;;;76.85;26.02;;;4.20;99.90;;;;;;5134990;27;20047;-64
2022/01/18 19:43:28;;;;;;;;;;;4.30;99.90;;;;;;5134732;28;20059;-64
2022/01/18 19:45:55;;;;;;;82.63;26.83;;;4.30;99.90;;;;;;5116893;28;19919;-64
2022/01/18 19:48:22;;;;;;;83.13;27.27;;;4.30;99.90;;;;;;5134542;28;20202;-64
2022/01/18 19:50:52;;;;;;;81.43;27.73;;;4.30;99.90;;;;;;5134549;28;20051;-64
2022/01/18 19:53:20;;;;;;;95.97;36.22;;;4.30;99.90;;;;;;5134415;28;20046;-64
2022/01/18 19:55:47;;;;;;;81.63;34.55;;;4.30;99.90;;;;;;5134972;28;20096;-64
2022/01/18 19:58:14;;;;;;;96.97;37.13;;;4.30;99.90;;;;;;5134492;28;20122;-64
2022/01/18 20:00:43;;;;;;;91.22;32.78;;;4.40;99.90;;;;;;5116189;28;20054;-65
2022/01/18 20:03:11;;;;;;;75.30;27.75;;;4.40;99.90;;;;;;5134413;28;20126;-63
2022/01/18 20:05:40;;;;;;;88.65;29.30;;;4.40;99.90;;;;;;5118823;27;20047;-64
2022/01/18 20:08:06;;;;;;;83.28;28.77;;;4.50;99.90;;;;;;5138717;27;20132;-64
2022/01/18 20:10:34;;;;;;;83.30;30.75;;;4.40;99.90;;;;;;5138557;27;20087;-64
2022/01/18 20:13:01;;;;;;;77.93;29.25;;;4.50;99.90;;;;;;5120442;27;20080;-64
2022/01/18 20:15:27;;;;;;;80.80;29.15;;;4.40;99.90;;;;;;5138512;27;20058;-64
2022/01/18 20:17:53;;;;;;;87.15;29.25;;;4.50;99.90;;;;;;5139053;27;20057;-64
2022/01/18 20:20:20;;;;;;;77.72;26.30;;;4.40;99.90;;;;;;5120189;27;20051;-64
2022/01/18 20:22:46;;;;;;;95.03;42.35;;;4.50;99.90;;;;;;5138170;27;20047;-64
2022/01/18 20:25:13;;;;;;;80.68;30.27;;;4.40;99.90;;;;;;5138257;27;20049;-64
2022/01/18 20:27:43;;;;;;;72.53;28.92;;;4.60;99.90;;;;;;5119757;27;20078;-64
2022/01/18 20:30:12;;;;;;;76.55;31.00;;;4.50;99.90;;;;;;5138993;27;20379;-64
2022/01/18 20:32:40;;;;;;;78.78;30.40;;;4.50;99.90;;;;;;5138726;27;20126;-64
2022/01/18 20:35:11;;;;;;;73.32;28.77;;;4.50;99.90;;;;;;5138196;27;20051;-63
2022/01/18 20:37:38;;;;;;;79.05;31.70;;;4.50;99.90;;;;;;5138113;27;20467;-63
2022/01/18 20:40:12;;;;;;;71.78;30.75;;;4.60;99.90;;;;;;5137908;27;20047;-63
2022/01/18 20:45:24;;;;;;;66.53;28.83;;;4.50;99.90;;;;;;5137876;27;20058;-64
2022/01/18 20:47:49;;;;;;;72.55;28.25;;;4.50;99.90;;;;;;5138117;27;20043;-64
2022/01/18 20:50:15;;;;;;;67.97;30.05;;;4.60;99.90;;;;;;5137626;27;20498;-64
2022/01/18 20:52:42;;;;;;;64.30;26.90;;;4.50;99.90;;;;;;5137865;27;20517;-63
2022/01/18 20:55:08;;;;;;;69.50;30.45;;;4.70;99.90;;;;;;5119867;27;20058;-63
2022/01/18 20:57:33;;;;;;;;;;;4.60;99.90;;;;;;5119584;27;20047;-64
2022/01/18 20:59:59;;;;;;;64.50;30.42;;;4.60;99.90;;;;;;5119157;27;20286;-64
2022/01/18 21:02:26;;;;;;;76.05;34.97;;;4.60;99.90;;;;;;5137457;27;20047;-63
2022/01/18 21:04:52;;;;;;;70.80;32.95;;;4.60;99.90;;;;;;5137498;27;20134;-63
2022/01/18 21:07:17;;;;;;;65.88;31.15;;;4.60;99.90;;;;;;5137746;27;20127;-62
2022/01/18 21:09:44;;;;;;;65.50;30.90;;;4.60;99.90;;;;;;5118866;27;20490;-63
2022/01/18 21:12:10;;;;;;;;;;;4.60;99.90;;;;;;5137793;27;20047;-63
2022/01/18 21:14:43;;;;;;;61.95;29.50;;;4.60;99.90;;;;;;5138079;27;20316;-64
2022/01/18 21:17:09;;;;;;;59.10;28.05;;;4.70;99.90;;;;;;5136808;27;20479;-63
2022/01/18 21:19:35;;;;;;;59.35;28.23;;;4.70;99.90;;;;;;5137098;27;20047;-63
2022/01/18 21:22:03;;;;;;;63.97;27.40;;;4.60;99.90;;;;;;5137191;27;20043;-63
2022/01/18 21:24:32;;;;;;;60.40;28.13;;;4.60;99.90;;;;;;5119591;27;20047;-65
2022/01/18 21:26:58;;;;;;;63.67;29.20;;;4.60;99.90;;;;;;5136946;27;20432;-63
2022/01/18 21:29:24;;;;;;;60.88;28.75;;;4.60;99.90;;;;;;5136559;27;20095;-63
2022/01/18 21:31:50;;;;;;;61.60;28.08;;;4.60;99.90;;;;;;5123185;27;20051;-65
2022/01/18 21:34:16;;;;;;;;;;;4.60;99.90;;;;;;5146203;27;21541;-63
2022/01/18 21:36:42;;;;;;;67.18;28.13;;;4.60;99.90;;;;;;5147611;27;20029;-63
2022/01/18 21:39:10;;;;;;;52.97;25.88;;;4.60;99.90;;;;;;5111363;27;20043;-62
2022/01/18 21:41:36;;;;;;;59.05;26.48;;;4.60;99.90;;;;;;5145450;27;20051;-62
2022/01/18 21:44:04;;;;;;;53.75;25.63;;;4.60;99.90;;;;;;5147730;27;20042;-64
2022/01/18 21:46:33;;;;;;;57.83;25.70;;;4.60;99.90;;;;;;5140809;27;20053;-65
2022/01/18 21:49:02;;;;;;;59.13;27.27;;;4.60;99.90;;;;;;5117874;27;20559;-65
2022/01/18 21:51:29;;;;;;;55.35;25.70;;;4.60;99.90;;;;;;5136312;27;20580;-64
2022/01/18 21:53:55;;;;;;;62.78;27.58;;;4.90;99.90;;;;;;5118751;27;20065;-64
2022/01/18 21:56:21;;;;;;;56.13;26.38;;;4.80;99.90;;;;;;5136466;27;20409;-64
2022/01/18 21:58:47;;;;;;;55.20;25.38;;;4.60;99.90;;;;;;5136384;27;20043;-63
2022/01/18 22:01:13;;;;;;;;;;;4.60;99.90;;;;;;5137411;27;20088;-64
2022/01/18 22:03:40;;;;;;;50.78;24.23;;;4.70;99.90;;;;;;5136345;27;19923;-62
2022/01/18 22:06:09;;;;;;;52.75;24.25;;;4.60;99.90;;;;;;5136023;27;20498;-63
2022/01/18 22:08:35;;;;;;;58.67;25.50;;;5.60;99.90;;;;;;5136119;27;20047;-64
2022/01/18 22:11:02;;;;;;;45.72;23.38;;;4.60;99.90;;;;;;5101146;27;20043;-63
2022/01/18 22:13:27;;;;;;;58.25;25.92;;;4.60;99.90;;;;;;5136151;27;20047;-63
2022/01/18 22:15:53;;;;;;;56.50;25.20;;;4.60;99.90;;;;;;5136140;27;20179;-62
2022/01/18 22:18:20;;;;;;;56.53;26.73;;;4.60;99.90;;;;;;5135820;27;20054;-63
2022/01/18 22:20:46;;;;;;;61.15;27.08;;;4.60;99.90;;;;;;5135894;27;20050;-63
2022/01/18 22:23:12;;;;;;;57.95;27.17;;;4.60;99.90;;;;;;5135849;27;20082;-64
2022/01/18 22:25:38;;;;;;;;;;;4.70;99.90;;;;;;5136955;27;20043;-64
2022/01/18 22:28:05;;;;;;;39.10;18.63;;;4.70;99.90;;;;;;5135070;27;20016;-63
2022/01/18 22:30:30;;;;;;;36.40;18.70;;;4.60;99.90;;;;;;5135844;27;20082;-63
2022/01/18 22:32:56;;;;;;;41.35;22.38;;;4.50;99.90;;;;;;5136139;27;20066;-63
2022/01/18 22:35:22;;;;;;;37.28;17.42;;;4.60;99.90;;;;;;5135756;27;20137;-63
2022/01/18 22:37:48;;;;;;;37.85;18.52;;;4.50;99.90;;;;;;5117614;27;20058;-63
2022/01/18 22:40:16;;;;;;;44.72;19.67;;;4.60;99.90;;;;;;5117535;27;20472;-63
2022/01/18 22:42:46;;;;;;;40.00;19.48;;;4.60;99.90;;;;;;5117190;27;20043;-64
2022/01/18 22:45:13;;;;;;;43.33;19.77;;;4.60;99.90;;;;;;5135694;27;20063;-63
2022/01/18 22:47:39;;;;;;;38.65;20.35;;;4.50;99.90;;;;;;5144400;27;20035;-63
2022/01/18 22:50:08;;;;;;;41.10;20.52;;;4.60;99.90;;;;;;5144434;27;20553;-63
